createdAt,value
2018-10-17T00:00:56.933Z,8.33
2018-10-17T00:03:25.715Z,9.07
2018-10-17T00:05:53.248Z,9.30
2018-10-17T00:08:20.792Z,9.70
2018-10-17T00:10:48.592Z,8.33
2018-10-17T00:13:16.571Z,8.37
2018-10-17T00:15:45.155Z,8.67
2018-10-17T00:18:13.096Z,11.50
2018-10-17T00:20:40.592Z,8.10
2018-10-17T00:23:08.766Z,8.50
2018-10-17T00:25:36.744Z,9.30
2018-10-17T00:28:05.437Z,9.03
2018-10-17T00:30:32.982Z,8.60
2018-10-17T00:33:01.179Z,10.27
2018-10-17T00:35:28.695Z,10.03
2018-10-17T00:37:57.122Z,9.80
2018-10-17T00:40:25.338Z,13.17
2018-10-17T00:42:54.181Z,12.13
2018-10-17T00:45:22.308Z,9.10
2018-10-17T00:47:50.267Z,9.40
2018-10-17T00:50:17.789Z,11.30
2018-10-17T00:52:45.325Z,11.60
2018-10-17T00:55:14.248Z,11.40
2018-10-17T00:57:41.705Z,11.43
2018-10-17T01:00:10.531Z,11.40
2018-10-17T01:02:38.056Z,9.37
2018-10-17T01:05:05.703Z,11.50
2018-10-17T01:07:33.532Z,9.23
2018-10-17T01:10:01.075Z,8.40
2018-10-17T01:12:29.064Z,11.63
2018-10-17T01:14:56.576Z,11.60
2018-10-17T01:17:24.824Z,10.47
2018-10-17T01:19:52.835Z,10.73
2018-10-17T01:22:20.348Z,10.87
2018-10-17T01:24:48.520Z,11.90
2018-10-17T01:27:16.600Z,12.63
2018-10-17T01:29:45.000Z,12.70
2018-10-17T01:32:12.519Z,10.97
2018-10-17T01:34:40.044Z,10.53
2018-10-17T01:37:08.898Z,11.17
2018-10-17T01:39:37.196Z,9.70
2018-10-17T01:42:05.524Z,10.17
2018-10-17T01:44:33.023Z,9.37
2018-10-17T01:47:00.554Z,8.97
2018-10-17T01:49:28.692Z,9.60
2018-10-17T01:51:56.203Z,10.63
2018-10-17T01:54:23.748Z,10.90
2018-10-17T01:56:53.415Z,10.50
2018-10-17T01:59:20.932Z,10.80
2018-10-17T02:01:48.441Z,10.17
2018-10-17T02:04:16.418Z,11.07
2018-10-17T02:06:43.931Z,12.00
2018-10-17T02:09:12.157Z,10.90
2018-10-17T02:11:39.642Z,10.50
2018-10-17T02:14:07.342Z,11.13
2018-10-17T02:16:35.779Z,12.00
2018-10-17T02:19:04.098Z,13.47
2018-10-17T02:21:31.608Z,12.93
2018-10-17T02:24:00.815Z,12.80
2018-10-17T02:26:28.899Z,12.77
2018-10-17T02:28:56.478Z,12.10
2018-10-17T02:31:23.928Z,12.03
2018-10-17T02:33:52.575Z,11.93
2018-10-17T02:36:20.072Z,13.20
2018-10-17T02:38:48.160Z,12.63
2018-10-17T02:41:16.183Z,12.00
2018-10-17T02:43:44.720Z,12.03
2018-10-17T02:46:12.746Z,11.47
2018-10-17T02:48:40.588Z,10.80
2018-10-17T02:51:08.150Z,11.17
2018-10-17T02:53:36.613Z,11.93
2018-10-17T02:56:04.282Z,11.60
2018-10-17T02:58:31.968Z,12.50
2018-10-17T03:00:59.630Z,12.73
2018-10-17T03:03:27.120Z,12.57
2018-10-17T03:05:56.596Z,11.23
2018-10-17T03:08:24.139Z,10.50
2018-10-17T03:10:51.708Z,10.83
2018-10-17T03:13:19.581Z,11.37
2018-10-17T03:15:47.761Z,10.87
2018-10-17T03:18:16.763Z,11.13
2018-10-17T03:20:44.268Z,12.60
2018-10-17T03:23:11.855Z,12.77
2018-10-17T03:25:40.017Z,12.67
2018-10-17T03:28:08.394Z,12.40
2018-10-17T03:30:35.748Z,12.50
2018-10-17T03:33:04.252Z,12.53
2018-10-17T03:35:32.867Z,12.50
2018-10-17T03:38:01.081Z,10.50
2018-10-17T03:40:28.600Z,12.27
2018-10-17T03:42:56.852Z,11.60
2018-10-17T03:45:24.345Z,13.40
2018-10-17T03:47:53.476Z,13.27
2018-10-17T03:50:20.980Z,12.43
2018-10-17T03:52:49.212Z,12.67
2018-10-17T03:55:16.730Z,11.50
2018-10-17T03:57:44.232Z,11.43
2018-10-17T04:00:12.005Z,9.60
2018-10-17T04:02:39.668Z,12.43
2018-10-17T04:05:08.651Z,10.37
2018-10-17T04:07:36.162Z,11.50
2018-10-17T04:10:04.037Z,12.00
2018-10-17T04:12:32.008Z,12.50
2018-10-17T04:14:59.683Z,10.37
2018-10-17T04:17:28.204Z,12.10
2018-10-17T04:19:56.837Z,13.77
2018-10-17T04:22:25.111Z,11.70
2018-10-17T04:24:54.298Z,12.50
2018-10-17T04:27:22.848Z,12.30
2018-10-17T04:29:50.924Z,12.37
2018-10-17T04:32:18.460Z,12.90
2018-10-17T04:34:46.016Z,13.10
2018-10-17T04:37:14.759Z,12.50
2018-10-17T04:39:42.240Z,12.90
2018-10-17T04:42:10.173Z,12.67
2018-10-17T04:44:37.770Z,12.33
2018-10-17T04:47:05.312Z,10.83
2018-10-17T04:49:33.323Z,11.30
2018-10-17T04:52:00.831Z,11.97
2018-10-17T04:54:28.408Z,11.67
2018-10-17T04:56:55.952Z,13.03
2018-10-17T04:59:23.448Z,12.90
2018-10-17T05:01:51.562Z,12.77
2018-10-17T05:04:19.077Z,13.10
2018-10-17T05:06:46.658Z,13.30
2018-10-17T05:09:14.570Z,12.77
2018-10-17T05:11:42.847Z,11.60
2018-10-17T05:14:10.871Z,9.90
2018-10-17T05:16:38.875Z,11.73
2018-10-17T05:19:07.048Z,12.47
2018-10-17T05:21:34.815Z,10.07
2018-10-17T05:24:03.219Z,11.30
2018-10-17T05:26:31.215Z,10.87
2018-10-17T05:28:58.756Z,9.83
2018-10-17T05:31:26.371Z,9.90
2018-10-17T05:33:54.087Z,11.07
2018-10-17T05:36:21.612Z,10.80
2018-10-17T05:38:49.591Z,12.63
2018-10-17T05:41:17.856Z,12.97
2018-10-17T05:43:45.995Z,12.37
2018-10-17T05:46:14.272Z,13.13
2018-10-17T05:48:42.433Z,13.60
2018-10-17T05:51:09.968Z,11.50
2018-10-17T05:53:37.461Z,11.93
2018-10-17T05:56:05.140Z,11.73
2018-10-17T05:58:32.651Z,13.17
2018-10-17T06:01:01.932Z,10.97
2018-10-17T06:03:29.824Z,12.70
2018-10-17T06:05:57.315Z,12.67
2018-10-17T06:08:25.615Z,12.13
2018-10-17T06:10:53.153Z,12.47
2018-10-17T06:13:21.572Z,11.73
2018-10-17T06:15:50.624Z,12.57
2018-10-17T06:18:19.261Z,11.70
2018-10-17T06:20:46.771Z,11.63
2018-10-17T06:23:15.108Z,13.13
2018-10-17T06:25:43.384Z,12.43
2018-10-17T06:28:11.627Z,12.30
2018-10-17T06:30:39.684Z,12.20
2018-10-17T06:33:07.963Z,13.10
2018-10-17T06:35:35.794Z,11.93
2018-10-17T06:38:04.177Z,13.20
2018-10-17T06:40:32.418Z,12.10
2018-10-17T06:43:00.186Z,12.80
2018-10-17T06:45:28.205Z,12.80
2018-10-17T06:47:56.149Z,12.20
2018-10-17T06:50:23.692Z,12.30
2018-10-17T06:52:51.282Z,12.47
2018-10-17T06:55:18.881Z,12.10
2018-10-17T06:57:47.203Z,11.30
2018-10-17T07:00:14.774Z,12.00
2018-10-17T07:02:42.280Z,12.37
2018-10-17T07:05:10.742Z,11.23
2018-10-17T07:07:38.475Z,12.83
2018-10-17T07:10:06.698Z,12.60
2018-10-17T07:12:34.491Z,13.87
2018-10-17T07:15:02.825Z,11.83
2018-10-17T07:17:31.046Z,16.73
2018-10-17T07:19:58.553Z,14.30
2018-10-17T07:22:26.898Z,14.33
2018-10-17T07:24:55.007Z,14.33
2018-10-17T07:27:23.041Z,14.10
2018-10-17T07:29:50.709Z,13.60
2018-10-17T07:32:18.108Z,13.90
2018-10-17T07:34:45.768Z,15.00
2018-10-17T07:37:13.740Z,14.20
2018-10-17T07:39:41.242Z,13.70
2018-10-17T07:42:09.324Z,13.63
2018-10-17T07:44:37.073Z,11.47
2018-10-17T07:47:05.204Z,11.03
2018-10-17T07:49:33.081Z,12.10
2018-10-17T07:52:00.595Z,13.10
2018-10-17T07:54:28.714Z,12.17
2018-10-17T07:56:56.228Z,12.73
2018-10-17T07:59:23.724Z,11.93
2018-10-17T08:01:51.980Z,13.23
2018-10-17T08:04:20.188Z,13.53
2018-10-17T08:06:47.855Z,12.27
2018-10-17T08:09:15.292Z,12.10
2018-10-17T08:11:43.605Z,11.30
2018-10-17T08:14:11.152Z,10.30
2018-10-17T08:16:39.549Z,11.33
2018-10-17T08:19:07.060Z,11.43
2018-10-17T08:21:34.722Z,11.00
2018-10-17T08:24:03.283Z,10.90
2018-10-17T08:26:31.436Z,10.77
2018-10-17T08:28:58.956Z,10.53
2018-10-17T08:31:26.488Z,11.57
2018-10-17T08:33:54.044Z,10.67
2018-10-17T08:36:21.746Z,10.23
2018-10-17T08:38:49.599Z,12.20
2018-10-17T08:41:18.283Z,11.77
2018-10-17T08:43:45.850Z,10.67
2018-10-17T08:46:14.069Z,10.83
2018-10-17T08:48:43.017Z,10.80
2018-10-17T08:51:10.584Z,10.57
2018-10-17T08:53:38.542Z,10.33
2018-10-17T08:56:06.127Z,9.77
2018-10-17T08:58:33.604Z,11.23
2018-10-17T09:01:02.206Z,8.87
2018-10-17T09:03:29.709Z,7.77
2018-10-17T09:05:57.620Z,10.50
2018-10-17T09:08:25.236Z,8.43
2018-10-17T09:10:53.151Z,10.03
2018-10-17T09:13:20.705Z,10.17
2018-10-17T09:15:48.672Z,10.07
2018-10-17T09:18:17.878Z,9.27
2018-10-17T09:20:46.450Z,9.80
2018-10-17T09:23:13.668Z,10.47
2018-10-17T09:25:42.207Z,10.37
2018-10-17T09:28:10.211Z,9.97
2018-10-17T09:30:37.778Z,9.67
2018-10-17T09:33:05.556Z,10.40
2018-10-17T09:35:33.341Z,8.37
2018-10-17T09:38:01.564Z,8.70
2018-10-17T09:40:29.064Z,10.37
2018-10-17T09:42:56.573Z,9.50
2018-10-17T09:45:24.260Z,9.53
2018-10-17T09:47:52.308Z,9.30
2018-10-17T09:50:20.332Z,10.37
2018-10-17T09:52:47.876Z,9.07
2018-10-17T09:55:16.555Z,10.47
2018-10-17T10:03:30.440Z,8.60
2018-10-17T10:05:57.959Z,8.70
2018-10-17T10:08:26.080Z,9.57
2018-10-17T10:10:53.621Z,10.07
2018-10-17T10:13:21.123Z,10.00
2018-10-17T10:24:28.144Z,8.23
2018-10-17T10:26:55.649Z,8.27
2018-10-17T10:29:23.147Z,10.77
2018-10-17T10:31:50.826Z,7.90
2018-10-17T10:34:19.294Z,9.27
2018-10-17T10:36:47.268Z,9.80
2018-10-17T10:39:14.779Z,8.87
2018-10-17T10:41:42.273Z,9.37
2018-10-17T10:44:11.121Z,8.93
2018-10-17T10:46:39.563Z,7.30
2018-10-17T10:49:07.578Z,6.73
2018-10-17T10:51:35.109Z,9.60
2018-10-17T10:54:02.754Z,8.70
2018-10-17T10:56:31.025Z,9.10
2018-10-17T10:58:58.658Z,8.83
2018-10-17T11:01:26.162Z,9.60
2018-10-17T11:03:53.933Z,8.70
2018-10-17T11:06:21.852Z,8.00
2018-10-17T11:08:49.384Z,8.00
2018-10-17T11:11:16.962Z,7.57
2018-10-17T11:13:44.634Z,9.00
2018-10-17T11:16:12.877Z,9.57
2018-10-17T11:18:40.884Z,9.40
2018-10-17T11:21:08.567Z,9.70
2018-10-17T11:23:36.037Z,9.27
2018-10-17T11:26:05.117Z,9.37
2018-10-17T11:28:32.650Z,9.30
2018-10-17T11:31:01.432Z,10.03
2018-10-17T11:33:29.621Z,10.57
2018-10-17T11:35:57.301Z,10.30
2018-10-17T11:38:25.400Z,10.57
2018-10-17T11:40:52.908Z,11.17
2018-10-17T11:43:20.443Z,11.03
2018-10-17T11:45:50.013Z,10.63
2018-10-17T11:48:18.192Z,10.57
2018-10-17T11:50:45.745Z,10.43
2018-10-17T11:53:14.345Z,10.93
2018-10-17T11:55:41.852Z,10.23
2018-10-17T11:58:09.461Z,11.53
2018-10-17T12:00:37.822Z,11.07
2018-10-17T12:03:06.581Z,11.30
2018-10-17T12:05:34.807Z,11.10
2018-10-17T12:08:02.050Z,11.20
2018-10-17T12:10:29.632Z,10.90
2018-10-17T12:12:58.540Z,12.03
2018-10-17T12:15:26.808Z,12.30
2018-10-17T12:17:55.155Z,12.00
2018-10-17T12:20:22.624Z,12.00
2018-10-17T12:22:50.255Z,12.70
2018-10-17T12:25:18.356Z,12.40
2018-10-17T12:27:45.984Z,11.20
2018-10-17T12:30:14.881Z,12.07
2018-10-17T12:32:42.469Z,12.80
2018-10-17T12:35:10.293Z,12.10
2018-10-17T12:37:38.184Z,12.10
2018-10-17T12:40:07.599Z,12.53
2018-10-17T12:42:35.657Z,12.50
2018-10-17T12:45:03.352Z,12.90
2018-10-17T12:47:30.859Z,12.83
2018-10-17T12:49:59.351Z,11.80
2018-10-17T12:52:28.108Z,12.90
2018-10-17T12:54:55.732Z,12.90
2018-10-17T12:57:23.236Z,12.10
2018-10-17T12:59:51.383Z,12.27
2018-10-17T13:02:19.543Z,19.83
2018-10-17T13:04:47.072Z,13.13
2018-10-17T13:07:15.267Z,12.30
2018-10-17T13:09:43.699Z,12.77
2018-10-17T13:12:11.244Z,13.63
2018-10-17T13:14:39.742Z,13.70
2018-10-17T13:17:08.252Z,14.20
2018-10-17T13:19:36.245Z,13.77
2018-10-17T13:22:03.981Z,13.63
2018-10-17T13:24:32.177Z,14.30
2018-10-17T13:27:00.629Z,12.67
2018-10-17T13:29:28.641Z,14.00
2018-10-17T13:31:56.634Z,13.20
2018-10-17T13:34:25.025Z,14.27
2018-10-17T13:36:53.183Z,13.50
2018-10-17T13:39:21.121Z,15.47
2018-10-17T13:41:50.151Z,14.33
2018-10-17T13:44:18.104Z,14.47
2018-10-17T13:46:46.059Z,13.17
2018-10-17T13:49:14.165Z,13.47
2018-10-17T13:51:42.413Z,13.03
2018-10-17T13:54:10.140Z,12.00
2018-10-17T13:56:38.323Z,13.60
2018-10-17T13:59:06.412Z,11.50
2018-10-17T14:01:33.941Z,12.43
2018-10-17T14:04:03.004Z,13.93
2018-10-17T14:06:30.526Z,12.10
2018-10-17T14:08:59.088Z,13.00
2018-10-17T14:11:26.778Z,12.70
2018-10-17T14:13:54.348Z,11.63
2018-10-17T14:16:22.509Z,9.83
2018-10-17T14:18:50.531Z,9.97
2018-10-17T14:21:18.787Z,10.40
2018-10-17T14:23:47.608Z,10.40
2018-10-17T14:26:15.776Z,10.03
2018-10-17T14:28:44.163Z,9.40
2018-10-17T14:31:11.704Z,10.20
2018-10-17T14:33:39.373Z,9.63
2018-10-17T14:36:07.235Z,10.87
2018-10-17T14:38:35.816Z,8.23
2018-10-17T14:41:03.573Z,9.97
2018-10-17T14:43:31.096Z,9.30
2018-10-17T14:45:59.335Z,8.30
2018-10-17T14:48:27.657Z,10.77
2018-10-17T14:50:55.249Z,9.37
2018-10-17T14:53:22.757Z,10.30
2018-10-17T14:55:51.215Z,9.73
2018-10-17T14:58:18.731Z,9.80
2018-10-17T15:00:46.641Z,9.30
2018-10-17T15:03:14.402Z,8.47
2018-10-17T15:05:42.549Z,9.77
2018-10-17T15:08:10.410Z,10.10
2018-10-17T15:10:38.532Z,10.00
2018-10-17T15:13:06.528Z,9.60
2018-10-17T15:15:39.032Z,7.50
2018-10-17T15:18:07.424Z,8.43
2018-10-17T15:20:36.320Z,10.23
2018-10-17T15:23:04.694Z,8.43
2018-10-17T15:25:32.831Z,7.70
2018-10-17T15:28:00.388Z,8.30
2018-10-17T15:30:27.899Z,8.47
2018-10-17T15:32:56.306Z,8.30
2018-10-17T15:35:24.416Z,8.93
2018-10-17T15:37:52.744Z,11.77
2018-10-17T15:40:20.252Z,9.87
2018-10-17T15:42:47.763Z,7.90
2018-10-17T15:45:15.957Z,8.03
2018-10-17T15:47:44.008Z,7.67
2018-10-17T15:50:11.521Z,7.70
2018-10-17T15:52:39.886Z,9.10
2018-10-17T15:55:07.427Z,11.17
2018-10-17T15:57:35.616Z,8.85
2018-10-17T16:00:03.773Z,7.90
2018-10-17T16:02:31.794Z,10.37
2018-10-17T16:04:59.848Z,8.07
2018-10-17T16:07:27.969Z,9.33
2018-10-17T16:09:56.000Z,10.90
2018-10-17T16:12:24.125Z,10.17
2018-10-17T16:14:52.669Z,10.30
2018-10-17T16:17:20.836Z,10.23
2018-10-17T16:19:49.376Z,10.13
2018-10-17T16:22:16.993Z,8.40
2018-10-17T16:24:45.072Z,8.80
2018-10-17T16:27:12.582Z,8.57
2018-10-17T16:29:40.145Z,8.03
2018-10-17T16:32:07.972Z,9.77
2018-10-17T16:34:36.372Z,11.37
2018-10-17T16:37:05.433Z,8.53
2018-10-17T16:39:32.940Z,8.07
2018-10-17T16:42:01.823Z,9.03
2018-10-17T16:44:30.019Z,9.20
2018-10-17T16:46:57.540Z,11.10
2018-10-17T16:49:28.796Z,10.23
2018-10-17T16:51:57.280Z,10.90
2018-10-17T16:54:24.862Z,9.77
2018-10-17T16:56:53.707Z,11.90
2018-10-17T16:59:21.256Z,9.93
2018-10-17T17:01:49.420Z,9.20
2018-10-17T17:04:17.434Z,9.57
2018-10-17T17:06:46.134Z,10.90
2018-10-17T17:09:13.723Z,10.57
2018-10-17T17:11:41.899Z,12.20
2018-10-17T17:14:11.326Z,10.20
2018-10-17T17:16:39.386Z,10.07
2018-10-17T17:19:07.492Z,9.53
2018-10-17T17:21:38.456Z,10.57
2018-10-17T17:24:06.428Z,9.37
2018-10-17T17:26:35.161Z,9.37
2018-10-17T17:29:03.116Z,8.87
2018-10-17T17:31:31.947Z,8.90
2018-10-17T17:34:00.544Z,8.30
2018-10-17T17:36:31.168Z,11.40
2018-10-17T17:38:59.493Z,11.40
2018-10-17T17:41:27.048Z,13.27
2018-10-17T17:43:56.904Z,11.30
2018-10-17T17:46:24.423Z,9.77
2018-10-17T17:48:53.281Z,8.80
2018-10-17T17:51:20.801Z,12.07
2018-10-17T17:53:48.440Z,10.50
2018-10-17T17:56:15.977Z,10.33
2018-10-17T17:58:45.829Z,9.30
2018-10-17T18:01:13.312Z,11.57
2018-10-17T18:03:41.240Z,11.60
2018-10-17T18:06:09.392Z,9.20
2018-10-17T18:08:36.923Z,9.33
2018-10-17T18:11:19.113Z,9.53
2018-10-17T18:13:47.132Z,10.50
2018-10-17T18:16:15.610Z,11.97
2018-10-17T18:18:44.196Z,12.43
2018-10-17T18:21:12.433Z,11.40
2018-10-17T18:23:40.551Z,10.67
2018-10-17T18:26:09.209Z,12.20
2018-10-17T18:28:37.408Z,11.70
2018-10-17T18:31:05.032Z,10.80
2018-10-17T18:33:32.954Z,11.00
2018-10-17T18:36:01.161Z,10.90
2018-10-17T18:38:30.132Z,10.80
2018-10-17T18:40:58.518Z,11.93
2018-10-17T18:43:28.248Z,10.93
2018-10-17T18:45:57.650Z,13.50
2018-10-17T18:48:26.181Z,15.57
2018-10-17T18:50:53.817Z,14.83
2018-10-17T18:53:21.501Z,15.77
2018-10-17T18:55:49.850Z,12.70
2018-10-17T18:58:17.409Z,14.50
2018-10-17T19:00:45.587Z,11.00
2018-10-17T19:03:13.976Z,11.90
2018-10-17T19:05:41.953Z,11.83
2018-10-17T19:08:09.659Z,11.00
2018-10-17T19:10:38.537Z,11.50
2018-10-17T19:13:06.897Z,11.50
2018-10-17T19:15:36.265Z,9.83
2018-10-17T19:18:05.093Z,9.33
2018-10-17T19:20:32.779Z,10.70
2018-10-17T19:23:00.400Z,9.63
2018-10-17T19:25:28.828Z,12.30
2018-10-17T19:27:57.091Z,11.50
2018-10-17T19:30:25.379Z,12.27
2018-10-17T19:32:53.489Z,10.70
2018-10-17T19:35:21.959Z,10.80
2018-10-17T19:37:50.844Z,10.73
2018-10-17T19:40:18.435Z,12.87
2018-10-17T19:42:46.981Z,11.70
2018-10-17T19:45:15.269Z,11.00
2018-10-17T19:47:43.251Z,12.07
2018-10-17T19:50:11.056Z,12.93
2018-10-17T19:52:38.621Z,13.10
2018-10-17T19:55:07.941Z,12.30
2018-10-17T19:57:35.451Z,13.47
2018-10-17T20:00:03.256Z,10.93
2018-10-17T20:02:31.307Z,10.87
2018-10-17T20:04:59.072Z,10.63
2018-10-17T20:07:26.776Z,10.00
2018-10-17T20:09:54.689Z,10.57
2018-10-17T20:12:22.757Z,9.87
2018-10-17T20:14:51.043Z,10.73
2018-10-17T20:17:19.408Z,10.30
2018-10-17T20:19:47.029Z,12.10
2018-10-17T20:22:15.072Z,13.90
2018-10-17T20:24:43.358Z,12.90
2018-10-17T20:27:10.991Z,12.40
2018-10-17T20:29:39.671Z,11.30
2018-10-17T20:32:08.402Z,15.50
2018-10-17T20:34:36.091Z,13.27
2018-10-17T20:37:04.762Z,11.97
2018-10-17T20:39:32.543Z,11.40
2018-10-17T20:42:01.509Z,11.00
2018-10-17T20:44:29.592Z,11.13
2018-10-17T20:46:58.060Z,10.83
2018-10-17T20:49:26.714Z,12.70
2018-10-17T20:51:54.319Z,9.93
2018-10-17T20:54:21.954Z,14.30
2018-10-17T20:56:49.872Z,15.10
2018-10-17T20:59:17.434Z,11.70
2018-10-17T21:01:46.174Z,10.20
2018-10-17T21:04:14.421Z,10.37
2018-10-17T21:06:43.199Z,12.90
2018-10-17T21:09:13.228Z,11.07
2018-10-17T21:11:41.067Z,14.03
2018-10-17T21:14:09.648Z,13.97
2018-10-17T21:16:38.001Z,11.07
2018-10-17T21:19:05.880Z,11.20
2018-10-17T21:21:34.224Z,10.60
2018-10-17T21:24:02.701Z,11.00
2018-10-17T21:26:30.219Z,12.57
2018-10-17T21:28:57.752Z,12.30
2018-10-17T21:31:26.231Z,11.97
2018-10-17T21:33:53.764Z,11.90
2018-10-17T21:36:22.231Z,11.47
2018-10-17T21:38:50.337Z,11.13
2018-10-17T21:41:17.858Z,10.13
2018-10-17T21:43:47.000Z,13.20
2018-10-17T21:46:15.209Z,11.97
2018-10-17T21:48:43.571Z,10.70
2018-10-17T21:51:12.060Z,11.40
2018-10-17T21:53:39.577Z,12.33
2018-10-17T21:56:07.144Z,11.53
2018-10-17T21:58:35.259Z,16.93
2018-10-17T22:01:02.800Z,12.97
2018-10-17T22:03:31.123Z,12.40
2018-10-17T22:05:59.280Z,15.70
2018-10-17T22:08:26.791Z,15.83
2018-10-17T22:10:55.126Z,21.97
2018-10-17T22:13:23.915Z,20.90
2018-10-17T22:15:51.978Z,20.53
2018-10-17T22:18:20.384Z,21.60
2018-10-17T22:20:47.880Z,21.20
2018-10-17T22:23:15.930Z,17.73
2018-10-17T22:25:44.094Z,17.53
2018-10-17T22:28:12.779Z,15.40
2018-10-17T22:30:41.071Z,14.53
2018-10-17T22:33:08.656Z,14.40
2018-10-17T22:35:37.017Z,12.53
2018-10-17T22:38:05.568Z,17.00
2018-10-17T22:40:33.041Z,16.30
2018-10-17T22:43:01.241Z,14.93
2018-10-17T22:45:28.734Z,14.60
2018-10-17T22:47:56.656Z,15.60
2018-10-17T22:50:24.144Z,14.10
2018-10-17T22:52:51.651Z,12.90
2018-10-17T22:55:19.337Z,12.77
2018-10-17T22:57:46.731Z,11.80
2018-10-17T23:00:14.396Z,11.30
2018-10-17T23:02:42.572Z,14.77
2018-10-17T23:05:10.755Z,16.10
2018-10-17T23:07:38.250Z,11.87
2018-10-17T23:10:05.899Z,13.53
2018-10-17T23:12:33.701Z,11.20
2018-10-17T23:15:04.862Z,11.97
2018-10-17T23:17:32.972Z,12.43
2018-10-17T23:20:00.514Z,14.00
2018-10-17T23:22:28.840Z,13.30
2018-10-17T23:24:57.096Z,13.10
2018-10-17T23:27:24.635Z,14.30
2018-10-17T23:29:52.110Z,17.13
2018-10-17T23:32:20.317Z,13.10
2018-10-17T23:34:48.244Z,13.10
2018-10-17T23:37:16.195Z,11.67
2018-10-17T23:39:44.233Z,14.27
2018-10-17T23:42:11.930Z,12.10
2018-10-17T23:44:40.289Z,13.53
2018-10-17T23:47:07.812Z,13.80
2018-10-17T23:49:35.772Z,12.73
2018-10-17T23:52:03.691Z,12.10
2018-10-17T23:54:31.195Z,11.37
2018-10-17T23:56:58.739Z,13.03
2018-10-17T23:59:27.408Z,12.63
